Flight Track Log - Related Links

Times and Time Zones

All times are in EDT time to prevent confusion due to time zone crossing. See the SKW6492 flight status page for this flight to view local times or setup timezone preferences in your user account.

Time Position Orientation Groundspeed Altitude Reporting Facility
EDT Latitude Longitude Course Direction KTS MPH feet Rate Location/Type
Tue 10:50:23 PM 39.8833 -104.6000 346° North 161 185 6,400  Level Denver TRACON
Tue 10:51:23 PM 39.8833 -104.5333 90° East 232 267 7,900 1,700 Climbing Denver TRACON
Tue 10:52:23 PM 39.9167 -104.4333 66° East 281 323 9,800 2,100 Climbing Denver TRACON
Tue 10:53:00 PM 40.2057 -104.9687 346° North  Level Estimated
Tue 10:53:23 PM 39.9833 -104.3833 30° Northeast 296 341 12,100  Level Denver TRACON
Tue 10:54:00 PM 40.2916 -105.0431 348° North  Level Estimated
Tue 10:54:23 PM 40.0500 -104.4167 339° North 286 329 14,500  Level Denver TRACON
Tue 10:55:00 PM 40.3775 -105.1176 346° North  Level Estimated
Tue 10:55:56 PM 40.1633 -104.4792 337° Northwest 288 331 17,700  Level Denver Center
Tue 10:56:57 PM 40.2397 -104.5350 331° Northwest 294 338 19,300 1,574 Climbing Denver Center
Tue 10:57:58 PM 40.3064 -104.6008 323° Northwest 299 344 20,900 1,475 Climbing Denver Center
Tue 10:58:59 PM 40.3778 -104.6681 324° Northwest 314 361 22,300 1,403 Climbing Denver Center
Tue 11:00:02 PM 40.4542 -104.7428 323° Northwest 317 365 23,800 1,355 Climbing Denver Center
Tue 11:01:03 PM 40.5256 -104.8128 323° Northwest 321 369 25,100 1,131 Climbing Denver Center
Tue 11:02:04 PM 40.5994 -104.8847 324° Northwest 331 381 26,100 984 Climbing Denver Center
Tue 11:03:05 PM 40.6750 -104.9583 324° Northwest 337 388 27,100 976 Climbing Denver Center
Tue 11:04:07 PM 40.7517 -105.0336 323° Northwest 342 394 28,100 927 Climbing Denver Center
Tue 11:05:08 PM 40.8286 -105.1058 325° Northwest 340 391 29,000 836 Climbing Denver Center
Tue 11:06:09 PM 40.9067 -105.1819 324° Northwest 350 403 29,800 738 Climbing Denver Center
Tue 11:07:10 PM 40.9864 -105.2608 323° Northwest 357 411 30,500 689 Climbing Denver Center
Tue 11:08:11 PM 41.0775 -105.3536 323° Northwest 365 420 31,200 590 Climbing Denver Center
Tue 11:09:12 PM 41.1561 -105.4300 324° Northwest 365 420 31,700 393 Climbing Denver Center
Tue 11:10:13 PM 41.2486 -105.5219 323° Northwest 372 428 32,000 148 Climbing Denver Center
Tue 11:11:14 PM 41.3319 -105.6069 323° Northwest 387 445 32,000  Level Denver Center
Tue 11:12:15 PM 41.4164 -105.6919 323° Northwest 395 455 32,000  Level Denver Center
Tue 11:13:16 PM 41.5181 -105.7933 323° Northwest 406 467 32,000  Level Denver Center
Tue 11:14:18 PM 41.6044 -105.8800 323° Northwest 405 466 32,000  Level Denver Center
Tue 11:15:19 PM 41.7036 -105.9814 323° Northwest 403 464 32,000  Level Denver Center
Tue 11:16:20 PM 41.7906 -106.0686 323° Northwest 404 465 32,000  Level Denver Center
Tue 11:17:21 PM 41.8747 -106.1556 322° Northwest 401 461 32,000  Level Denver Center
Tue 11:18:22 PM 41.9747 -106.2589 322° Northwest 402 463 32,000  Level Denver Center
Tue 11:19:23 PM 42.0611 -106.3464 323° Northwest 404 465 32,000  Level Denver Center
Tue 11:20:24 PM 42.1433 -106.4336 322° Northwest 397 457 32,000  Level Denver Center
Tue 11:21:25 PM 42.2356 -106.5292 323° Northwest 402 463 32,000  Level Denver Center
Tue 11:22:26 PM 42.3361 -106.6331 323° Northwest 407 468 32,000  Level Denver Center
Tue 11:23:27 PM 42.4150 -106.7172 322° Northwest 406 467 32,000  Level Denver Center
Tue 11:24:29 PM 42.5153 -106.8214 323° Northwest 406 467 32,000  Level Denver Center
Tue 11:25:30 PM 42.6053 -106.9158 322° Northwest 404 465 32,000  Level Denver Center
Tue 11:26:31 PM 42.6994 -107.0172 322° Northwest 406 467 32,000  Level Denver Center
Tue 11:27:32 PM 42.7847 -107.1058 323° Northwest 402 463 32,000  Level Denver Center
Tue 11:28:33 PM 42.8703 -107.1964 322° Northwest 405 466 32,000  Level Denver Center
Tue 11:29:28 PM 42.9414 -107.2758 321° Northwest 400 460 32,000  Level Salt Lake Center
Tue 11:30:29 PM 43.0508 -107.3825 325° Northwest 403 464 32,000  Level Salt Lake Center
Tue 11:31:30 PM 43.1467 -107.4614 329° Northwest 403 464 32,000  Level Salt Lake Center
Tue 11:32:32 PM 43.2436 -107.5408 329° Northwest 405 466 32,000  Level Salt Lake Center
Tue 11:33:33 PM 43.3400 -107.6228 328° Northwest 407 468 32,000  Level Salt Lake Center
Tue 11:34:34 PM 43.4358 -107.7047 328° Northwest 408 470 32,000  Level Salt Lake Center
Tue 11:35:35 PM 43.5333 -107.7847 329° Northwest 408 470 32,000  Level Salt Lake Center
Tue 11:36:37 PM 43.6294 -107.8681 328° Northwest 408 470 32,000 -683 Level Salt Lake Center
Tue 11:37:38 PM 43.7258 -107.9486 329° Northwest 407 468 30,600 -2,213 Descending Salt Lake Center
Tue 11:38:39 PM 43.8214 -108.0256 330° Northwest 399 459 27,500 -3,000 Descending Salt Lake Center
Tue 11:39:40 PM 43.9147 -108.1053 328° Northwest 395 455 24,500 -3,220 Descending Salt Lake Center
Tue 11:40:42 PM 44.0217 -108.1961 329° Northwest 376 433 20,900 -3,220 Descending Salt Lake Center
Tue 11:41:43 PM 44.1064 -108.2694 328° Northwest 366 421 17,900 -2,852 Descending Salt Lake Center
Tue 11:42:44 PM 44.1894 -108.3394 329° Northwest 358 412 15,100 -2,607 Descending Salt Lake Center
Tue 11:43:45 PM 44.2719 -108.4081 329° Northwest 352 405 12,600 -1,672 Descending Salt Lake Center
Tue 11:44:46 PM 44.3489 -108.4742 328° Northwest 342 394 11,700 -934 Descending Salt Lake Center
Tue 11:45:47 PM 44.4150 -108.5297 329° Northwest 312 359 10,700 -984 Descending Salt Lake Center
Tue 11:46:48 PM 44.4775 -108.5847 328° Northwest 283 326 9,700 -829 Descending Salt Lake Center
Tue 11:47:50 PM 44.5414 -108.6400 328° Northwest 273 314 9,000 -537 Descending Salt Lake Center
Tue 11:48:51 PM 44.6028 -108.6956 327° Northwest 268 308 8,600 -492 Descending Salt Lake Center
Tue 11:49:52 PM 44.6436 -108.7656 309° West 266 306 8,000 -492 Descending Salt Lake Center
Tue 11:50:53 PM 44.6244 -108.8425 251° West 232 267 7,600 -295 Descending Salt Lake Center
Tue 11:51:54 PM 44.5878 -108.9064 231° Southwest 220 253 7,400 -787 Descending Salt Lake Center
Tue 11:52:55 PM 44.5514 -108.9683 231° Southwest 193 222 6,000 -787 Descending Salt Lake Center
Tue 11:53:56 PM 44.5233 -109.0156 230° Southwest 188 216 5,800 -197 Descending Salt Lake Center

Login

Don't have an account? Register now (free) for customized features, flight alerts, and more!